sensor_id;sensor_type;location;lat;lon;timestamp;P1;durP1;ratioP1;P2;durP2;ratioP2
54167;SDS011;68429;50.958;3.592;2023-10-08T00:01:08;8.30;;;3.35;;
54167;SDS011;68429;50.958;3.592;2023-10-08T00:03:38;8.27;;;3.67;;
54167;SDS011;68429;50.958;3.592;2023-10-08T00:06:05;9.25;;;3.58;;
54167;SDS011;68429;50.958;3.592;2023-10-08T00:08:39;7.57;;;3.40;;
54167;SDS011;68429;50.958;3.592;2023-10-08T00:11:05;10.68;;;3.50;;
54167;SDS011;68429;50.958;3.592;2023-10-08T00:13:31;8.68;;;3.70;;
54167;SDS011;68429;50.958;3.592;2023-10-08T00:16:05;7.47;;;3.95;;
54167;SDS011;68429;50.958;3.592;2023-10-08T00:18:34;10.48;;;3.25;;
54167;SDS011;68429;50.958;3.592;2023-10-08T00:21:00;6.53;;;3.22;;
54167;SDS011;68429;50.958;3.592;2023-10-08T00:23:35;6.65;;;3.58;;
54167;SDS011;68429;50.958;3.592;2023-10-08T00:26:06;6.97;;;3.10;;
54167;SDS011;68429;50.958;3.592;2023-10-08T00:28:33;9.23;;;3.28;;
54167;SDS011;68429;50.958;3.592;2023-10-08T00:30:58;8.07;;;3.65;;
54167;SDS011;68429;50.958;3.592;2023-10-08T00:33:31;8.68;;;3.47;;
54167;SDS011;68429;50.958;3.592;2023-10-08T00:35:57;10.93;;;4.15;;
54167;SDS011;68429;50.958;3.592;2023-10-08T00:38:23;8.30;;;3.40;;
54167;SDS011;68429;50.958;3.592;2023-10-08T00:40:56;8.93;;;3.92;;
54167;SDS011;68429;50.958;3.592;2023-10-08T00:43:29;8.55;;;3.45;;
54167;SDS011;68429;50.958;3.592;2023-10-08T00:45:58;10.45;;;3.50;;
54167;SDS011;68429;50.958;3.592;2023-10-08T00:48:25;9.70;;;3.60;;
54167;SDS011;68429;50.958;3.592;2023-10-08T00:50:55;9.35;;;3.50;;
54167;SDS011;68429;50.958;3.592;2023-10-08T00:53:35;8.57;;;4.20;;
54167;SDS011;68429;50.958;3.592;2023-10-08T00:56:04;14.80;;;3.58;;
54167;SDS011;68429;50.958;3.592;2023-10-08T00:58:36;9.68;;;3.58;;
54167;SDS011;68429;50.958;3.592;2023-10-08T01:01:02;10.75;;;3.72;;
54167;SDS011;68429;50.958;3.592;2023-10-08T01:03:28;6.07;;;3.67;;
54167;SDS011;68429;50.958;3.592;2023-10-08T01:05:54;8.10;;;3.83;;
54167;SDS011;68429;50.958;3.592;2023-10-08T01:08:22;11.30;;;4.13;;
54167;SDS011;68429;50.958;3.592;2023-10-08T01:11:30;11.27;;;3.50;;
54167;SDS011;68429;50.958;3.592;2023-10-08T01:14:11;9.90;;;3.92;;
54167;SDS011;68429;50.958;3.592;2023-10-08T01:16:36;6.60;;;3.97;;
54167;SDS011;68429;50.958;3.592;2023-10-08T01:19:04;8.60;;;3.95;;
54167;SDS011;68429;50.958;3.592;2023-10-08T01:21:37;7.95;;;4.20;;
54167;SDS011;68429;50.958;3.592;2023-10-08T01:24:05;8.18;;;3.50;;
54167;SDS011;68429;50.958;3.592;2023-10-08T01:26:32;12.80;;;4.20;;
54167;SDS011;68429;50.958;3.592;2023-10-08T01:28:59;9.82;;;3.90;;
54167;SDS011;68429;50.958;3.592;2023-10-08T01:31:29;11.68;;;3.72;;
54167;SDS011;68429;50.958;3.592;2023-10-08T01:33:54;5.13;;;3.50;;
54167;SDS011;68429;50.958;3.592;2023-10-08T01:36:22;10.10;;;4.22;;
54167;SDS011;68429;50.958;3.592;2023-10-08T01:38:50;10.48;;;4.30;;
54167;SDS011;68429;50.958;3.592;2023-10-08T01:41:16;10.45;;;4.25;;
54167;SDS011;68429;50.958;3.592;2023-10-08T01:43:48;8.88;;;3.75;;
54167;SDS011;68429;50.958;3.592;2023-10-08T01:46:17;12.43;;;4.40;;
54167;SDS011;68429;50.958;3.592;2023-10-08T01:48:46;8.80;;;3.53;;
54167;SDS011;68429;50.958;3.592;2023-10-08T01:51:18;10.77;;;3.80;;
54167;SDS011;68429;50.958;3.592;2023-10-08T01:53:54;6.13;;;3.80;;
54167;SDS011;68429;50.958;3.592;2023-10-08T01:56:23;12.07;;;4.35;;
54167;SDS011;68429;50.958;3.592;2023-10-08T01:58:49;10.02;;;4.50;;
54167;SDS011;68429;50.958;3.592;2023-10-08T02:01:19;9.45;;;3.92;;
54167;SDS011;68429;50.958;3.592;2023-10-08T02:03:45;10.57;;;4.40;;
54167;SDS011;68429;50.958;3.592;2023-10-08T02:06:10;6.35;;;3.58;;
54167;SDS011;68429;50.958;3.592;2023-10-08T02:08:37;11.27;;;3.92;;
54167;SDS011;68429;50.958;3.592;2023-10-08T02:11:03;11.95;;;4.40;;
54167;SDS011;68429;50.958;3.592;2023-10-08T02:13:29;7.95;;;3.90;;
54167;SDS011;68429;50.958;3.592;2023-10-08T02:15:55;9.63;;;4.75;;
54167;SDS011;68429;50.958;3.592;2023-10-08T02:18:21;7.43;;;4.30;;
54167;SDS011;68429;50.958;3.592;2023-10-08T02:20:50;9.70;;;3.95;;
54167;SDS011;68429;50.958;3.592;2023-10-08T02:23:16;11.80;;;4.50;;
54167;SDS011;68429;50.958;3.592;2023-10-08T02:25:43;9.57;;;4.63;;
54167;SDS011;68429;50.958;3.592;2023-10-08T02:28:09;12.18;;;4.15;;
54167;SDS011;68429;50.958;3.592;2023-10-08T02:30:40;7.18;;;3.97;;
54167;SDS011;68429;50.958;3.592;2023-10-08T02:33:06;11.45;;;4.70;;
54167;SDS011;68429;50.958;3.592;2023-10-08T02:35:42;10.27;;;4.72;;
54167;SDS011;68429;50.958;3.592;2023-10-08T02:38:10;7.82;;;4.68;;
54167;SDS011;68429;50.958;3.592;2023-10-08T02:40:38;12.98;;;5.22;;
54167;SDS011;68429;50.958;3.592;2023-10-08T02:43:10;10.50;;;4.53;;
54167;SDS011;68429;50.958;3.592;2023-10-08T02:45:36;10.07;;;4.43;;
54167;SDS011;68429;50.958;3.592;2023-10-08T02:48:06;12.40;;;4.10;;
54167;SDS011;68429;50.958;3.592;2023-10-08T02:50:37;13.40;;;3.85;;
54167;SDS011;68429;50.958;3.592;2023-10-08T02:53:07;18.77;;;3.85;;
54167;SDS011;68429;50.958;3.592;2023-10-08T02:55:39;9.02;;;3.72;;
54167;SDS011;68429;50.958;3.592;2023-10-08T02:58:12;10.90;;;5.00;;
54167;SDS011;68429;50.958;3.592;2023-10-08T03:00:46;7.85;;;3.25;;
54167;SDS011;68429;50.958;3.592;2023-10-08T03:03:14;9.23;;;4.43;;
54167;SDS011;68429;50.958;3.592;2023-10-08T03:05:49;9.43;;;4.22;;
54167;SDS011;68429;50.958;3.592;2023-10-08T03:08:17;9.13;;;4.60;;
54167;SDS011;68429;50.958;3.592;2023-10-08T03:10:50;8.07;;;4.07;;
54167;SDS011;68429;50.958;3.592;2023-10-08T03:13:28;5.80;;;3.90;;
54167;SDS011;68429;50.958;3.592;2023-10-08T03:15:54;12.35;;;4.53;;
54167;SDS011;68429;50.958;3.592;2023-10-08T03:18:25;11.75;;;4.55;;
54167;SDS011;68429;50.958;3.592;2023-10-08T03:21:00;7.50;;;3.90;;
54167;SDS011;68429;50.958;3.592;2023-10-08T03:23:30;10.23;;;4.95;;
54167;SDS011;68429;50.958;3.592;2023-10-08T03:26:00;10.23;;;4.30;;
54167;SDS011;68429;50.958;3.592;2023-10-08T03:28:30;11.65;;;4.13;;
54167;SDS011;68429;50.958;3.592;2023-10-08T03:31:00;8.55;;;4.30;;
54167;SDS011;68429;50.958;3.592;2023-10-08T03:33:30;8.40;;;4.30;;
54167;SDS011;68429;50.958;3.592;2023-10-08T03:36:01;8.57;;;4.53;;
54167;SDS011;68429;50.958;3.592;2023-10-08T03:38:48;8.77;;;5.05;;
54167;SDS011;68429;50.958;3.592;2023-10-08T03:41:17;9.75;;;4.53;;
54167;SDS011;68429;50.958;3.592;2023-10-08T03:43:43;7.38;;;4.07;;
54167;SDS011;68429;50.958;3.592;2023-10-08T03:46:23;11.98;;;4.50;;
54167;SDS011;68429;50.958;3.592;2023-10-08T03:48:50;6.88;;;4.25;;
54167;SDS011;68429;50.958;3.592;2023-10-08T03:51:16;9.57;;;4.82;;
54167;SDS011;68429;50.958;3.592;2023-10-08T03:53:45;8.00;;;4.18;;
54167;SDS011;68429;50.958;3.592;2023-10-08T03:56:25;6.05;;;4.40;;
54167;SDS011;68429;50.958;3.592;2023-10-08T03:58:54;7.55;;;4.35;;
54167;SDS011;68429;50.958;3.592;2023-10-08T04:01:21;9.10;;;4.65;;
54167;SDS011;68429;50.958;3.592;2023-10-08T04:03:48;12.20;;;4.70;;
54167;SDS011;68429;50.958;3.592;2023-10-08T04:06:17;11.05;;;4.90;;
54167;SDS011;68429;50.958;3.592;2023-10-08T04:08:48;14.00;;;4.88;;
54167;SDS011;68429;50.958;3.592;2023-10-08T04:11:32;10.60;;;4.13;;
54167;SDS011;68429;50.958;3.592;2023-10-08T04:14:04;5.40;;;4.18;;
54167;SDS011;68429;50.958;3.592;2023-10-08T04:16:31;13.82;;;5.28;;
54167;SDS011;68429;50.958;3.592;2023-10-08T04:19:01;8.65;;;4.07;;
54167;SDS011;68429;50.958;3.592;2023-10-08T04:21:28;8.68;;;4.68;;
54167;SDS011;68429;50.958;3.592;2023-10-08T04:23:55;11.57;;;4.50;;
54167;SDS011;68429;50.958;3.592;2023-10-08T04:26:22;9.95;;;4.28;;
54167;SDS011;68429;50.958;3.592;2023-10-08T04:28:51;14.00;;;5.97;;
54167;SDS011;68429;50.958;3.592;2023-10-08T04:31:23;7.18;;;4.47;;
54167;SDS011;68429;50.958;3.592;2023-10-08T04:34:01;11.95;;;4.40;;
54167;SDS011;68429;50.958;3.592;2023-10-08T04:36:34;9.15;;;4.43;;
54167;SDS011;68429;50.958;3.592;2023-10-08T04:38:59;9.35;;;4.53;;
54167;SDS011;68429;50.958;3.592;2023-10-08T04:41:30;12.45;;;4.65;;
54167;SDS011;68429;50.958;3.592;2023-10-08T04:43:56;12.48;;;4.35;;
54167;SDS011;68429;50.958;3.592;2023-10-08T04:46:22;7.60;;;4.32;;
54167;SDS011;68429;50.958;3.592;2023-10-08T04:49:12;11.38;;;4.68;;
54167;SDS011;68429;50.958;3.592;2023-10-08T04:52:00;8.48;;;5.07;;
54167;SDS011;68429;50.958;3.592;2023-10-08T04:54:40;7.75;;;4.30;;
54167;SDS011;68429;50.958;3.592;2023-10-08T04:57:11;8.55;;;4.80;;
54167;SDS011;68429;50.958;3.592;2023-10-08T04:59:43;7.88;;;4.35;;
54167;SDS011;68429;50.958;3.592;2023-10-08T05:04:38;10.45;;;4.75;;
54167;SDS011;68429;50.958;3.592;2023-10-08T05:07:21;8.63;;;4.53;;
54167;SDS011;68429;50.958;3.592;2023-10-08T05:10:07;11.88;;;4.93;;
54167;SDS011;68429;50.958;3.592;2023-10-08T05:12:33;7.88;;;4.75;;
54167;SDS011;68429;50.958;3.592;2023-10-08T05:15:18;9.27;;;4.68;;
54167;SDS011;68429;50.958;3.592;2023-10-08T05:17:57;8.70;;;4.90;;
54167;SDS011;68429;50.958;3.592;2023-10-08T05:20:34;12.00;;;5.57;;
54167;SDS011;68429;50.958;3.592;2023-10-08T05:23:16;8.02;;;4.82;;
54167;SDS011;68429;50.958;3.592;2023-10-08T05:28:24;8.57;;;4.55;;
54167;SDS011;68429;50.958;3.592;2023-10-08T05:30:51;17.27;;;5.90;;
54167;SDS011;68429;50.958;3.592;2023-10-08T05:33:35;10.63;;;4.90;;
54167;SDS011;68429;50.958;3.592;2023-10-08T05:36:19;10.18;;;5.07;;
54167;SDS011;68429;50.958;3.592;2023-10-08T05:38:53;7.88;;;5.30;;
54167;SDS011;68429;50.958;3.592;2023-10-08T05:41:37;11.07;;;5.47;;
54167;SDS011;68429;50.958;3.592;2023-10-08T05:44:16;10.17;;;4.97;;
54167;SDS011;68429;50.958;3.592;2023-10-08T05:46:45;10.57;;;5.40;;
54167;SDS011;68429;50.958;3.592;2023-10-08T05:49:31;15.32;;;5.35;;
54167;SDS011;68429;50.958;3.592;2023-10-08T05:51:57;10.00;;;4.88;;
54167;SDS011;68429;50.958;3.592;2023-10-08T05:54:30;14.13;;;5.47;;
54167;SDS011;68429;50.958;3.592;2023-10-08T05:57:00;12.45;;;5.28;;
54167;SDS011;68429;50.958;3.592;2023-10-08T05:59:49;7.78;;;4.75;;
54167;SDS011;68429;50.958;3.592;2023-10-08T06:02:21;9.90;;;5.15;;
54167;SDS011;68429;50.958;3.592;2023-10-08T06:05:00;13.18;;;5.68;;
54167;SDS011;68429;50.958;3.592;2023-10-08T06:07:51;12.43;;;5.72;;
54167;SDS011;68429;50.958;3.592;2023-10-08T06:10:36;12.90;;;5.38;;
54167;SDS011;68429;50.958;3.592;2023-10-08T06:15:40;9.20;;;5.40;;
54167;SDS011;68429;50.958;3.592;2023-10-08T06:18:16;9.48;;;5.60;;
54167;SDS011;68429;50.958;3.592;2023-10-08T06:20:43;8.02;;;5.13;;
54167;SDS011;68429;50.958;3.592;2023-10-08T06:23:13;9.70;;;5.32;;
54167;SDS011;68429;50.958;3.592;2023-10-08T06:25:46;10.32;;;5.07;;
54167;SDS011;68429;50.958;3.592;2023-10-08T06:28:15;10.30;;;5.78;;
54167;SDS011;68429;50.958;3.592;2023-10-08T06:30:52;11.80;;;5.43;;
54167;SDS011;68429;50.958;3.592;2023-10-08T06:33:20;9.60;;;5.13;;
54167;SDS011;68429;50.958;3.592;2023-10-08T06:35:47;11.85;;;5.78;;
54167;SDS011;68429;50.958;3.592;2023-10-08T06:38:30;10.70;;;6.15;;
54167;SDS011;68429;50.958;3.592;2023-10-08T06:41:00;11.50;;;5.70;;
54167;SDS011;68429;50.958;3.592;2023-10-08T06:43:34;7.20;;;5.57;;
54167;SDS011;68429;50.958;3.592;2023-10-08T06:46:01;14.95;;;6.65;;
54167;SDS011;68429;50.958;3.592;2023-10-08T06:48:28;9.07;;;5.38;;
54167;SDS011;68429;50.958;3.592;2023-10-08T06:50:54;13.80;;;5.82;;
54167;SDS011;68429;50.958;3.592;2023-10-08T06:53:22;11.85;;;5.45;;
54167;SDS011;68429;50.958;3.592;2023-10-08T06:55:48;14.02;;;6.07;;
54167;SDS011;68429;50.958;3.592;2023-10-08T06:58:21;10.45;;;4.88;;
54167;SDS011;68429;50.958;3.592;2023-10-08T07:00:48;9.80;;;5.45;;
54167;SDS011;68429;50.958;3.592;2023-10-08T07:03:14;11.73;;;5.72;;
54167;SDS011;68429;50.958;3.592;2023-10-08T07:05:43;10.93;;;6.05;;
54167;SDS011;68429;50.958;3.592;2023-10-08T07:08:22;9.05;;;5.82;;
54167;SDS011;68429;50.958;3.592;2023-10-08T07:10:52;11.65;;;5.95;;
54167;SDS011;68429;50.958;3.592;2023-10-08T07:15:47;15.93;;;6.03;;
54167;SDS011;68429;50.958;3.592;2023-10-08T07:18:17;11.90;;;5.38;;
54167;SDS011;68429;50.958;3.592;2023-10-08T07:20:50;15.63;;;5.82;;
54167;SDS011;68429;50.958;3.592;2023-10-08T07:23:22;11.63;;;6.00;;
54167;SDS011;68429;50.958;3.592;2023-10-08T07:25:56;11.15;;;5.93;;
54167;SDS011;68429;50.958;3.592;2023-10-08T07:28:43;12.27;;;6.05;;
54167;SDS011;68429;50.958;3.592;2023-10-08T07:31:20;10.27;;;6.07;;
54167;SDS011;68429;50.958;3.592;2023-10-08T07:33:50;9.80;;;5.82;;
54167;SDS011;68429;50.958;3.592;2023-10-08T07:36:23;8.95;;;6.40;;
54167;SDS011;68429;50.958;3.592;2023-10-08T07:38:50;14.95;;;6.25;;
54167;SDS011;68429;50.958;3.592;2023-10-08T07:41:16;10.77;;;6.22;;
54167;SDS011;68429;50.958;3.592;2023-10-08T07:43:44;10.75;;;5.57;;
54167;SDS011;68429;50.958;3.592;2023-10-08T07:46:23;8.65;;;5.80;;
54167;SDS011;68429;50.958;3.592;2023-10-08T07:48:53;13.52;;;6.50;;
54167;SDS011;68429;50.958;3.592;2023-10-08T07:51:19;14.23;;;6.55;;
54167;SDS011;68429;50.958;3.592;2023-10-08T07:53:48;9.32;;;5.75;;
54167;SDS011;68429;50.958;3.592;2023-10-08T07:56:19;14.07;;;5.88;;
54167;SDS011;68429;50.958;3.592;2023-10-08T07:58:45;16.55;;;6.50;;
54167;SDS011;68429;50.958;3.592;2023-10-08T08:01:10;14.63;;;6.05;;
54167;SDS011;68429;50.958;3.592;2023-10-08T08:03:38;16.65;;;6.18;;
54167;SDS011;68429;50.958;3.592;2023-10-08T08:06:08;14.15;;;6.63;;
54167;SDS011;68429;50.958;3.592;2023-10-08T08:08:34;11.27;;;6.25;;
54167;SDS011;68429;50.958;3.592;2023-10-08T08:11:08;18.42;;;7.13;;
54167;SDS011;68429;50.958;3.592;2023-10-08T08:13:43;19.75;;;6.22;;
54167;SDS011;68429;50.958;3.592;2023-10-08T08:16:10;14.55;;;6.18;;
54167;SDS011;68429;50.958;3.592;2023-10-08T08:18:47;11.38;;;6.45;;
54167;SDS011;68429;50.958;3.592;2023-10-08T08:21:15;10.57;;;6.82;;
54167;SDS011;68429;50.958;3.592;2023-10-08T08:23:44;14.60;;;6.88;;
54167;SDS011;68429;50.958;3.592;2023-10-08T08:26:34;13.82;;;7.22;;
54167;SDS011;68429;50.958;3.592;2023-10-08T08:29:05;10.77;;;6.20;;
54167;SDS011;68429;50.958;3.592;2023-10-08T08:31:34;12.23;;;6.37;;
54167;SDS011;68429;50.958;3.592;2023-10-08T08:34:00;16.63;;;6.47;;
54167;SDS011;68429;50.958;3.592;2023-10-08T08:36:29;10.40;;;7.13;;
54167;SDS011;68429;50.958;3.592;2023-10-08T08:38:56;16.35;;;7.35;;
54167;SDS011;68429;50.958;3.592;2023-10-08T08:41:23;14.85;;;7.20;;
54167;SDS011;68429;50.958;3.592;2023-10-08T08:43:50;12.30;;;6.90;;
54167;SDS011;68429;50.958;3.592;2023-10-08T08:46:30;15.65;;;7.20;;
54167;SDS011;68429;50.958;3.592;2023-10-08T08:49:00;11.98;;;6.10;;
54167;SDS011;68429;50.958;3.592;2023-10-08T08:51:30;16.02;;;7.20;;
54167;SDS011;68429;50.958;3.592;2023-10-08T08:53:56;13.52;;;7.55;;
54167;SDS011;68429;50.958;3.592;2023-10-08T08:56:24;16.77;;;9.20;;
54167;SDS011;68429;50.958;3.592;2023-10-08T08:58:51;11.60;;;7.45;;
54167;SDS011;68429;50.958;3.592;2023-10-08T09:01:17;19.02;;;8.50;;
54167;SDS011;68429;50.958;3.592;2023-10-08T09:03:44;17.20;;;8.23;;
54167;SDS011;68429;50.958;3.592;2023-10-08T09:06:13;15.13;;;7.40;;
54167;SDS011;68429;50.958;3.592;2023-10-08T09:08:38;18.10;;;8.18;;
54167;SDS011;68429;50.958;3.592;2023-10-08T09:11:13;18.65;;;7.47;;
54167;SDS011;68429;50.958;3.592;2023-10-08T09:13:40;19.88;;;7.60;;
54167;SDS011;68429;50.958;3.592;2023-10-08T09:16:07;15.07;;;7.35;;
54167;SDS011;68429;50.958;3.592;2023-10-08T09:18:36;15.10;;;6.95;;
54167;SDS011;68429;50.958;3.592;2023-10-08T09:21:09;16.10;;;7.70;;
54167;SDS011;68429;50.958;3.592;2023-10-08T09:23:38;19.42;;;7.57;;
54167;SDS011;68429;50.958;3.592;2023-10-08T09:26:15;15.98;;;7.32;;
54167;SDS011;68429;50.958;3.592;2023-10-08T09:28:46;17.38;;;7.00;;
54167;SDS011;68429;50.958;3.592;2023-10-08T09:31:13;16.95;;;7.68;;
54167;SDS011;68429;50.958;3.592;2023-10-08T09:33:40;14.50;;;7.30;;
54167;SDS011;68429;50.958;3.592;2023-10-08T09:36:06;18.95;;;7.15;;
54167;SDS011;68429;50.958;3.592;2023-10-08T09:38:35;14.55;;;7.68;;
54167;SDS011;68429;50.958;3.592;2023-10-08T09:41:02;15.73;;;6.97;;
54167;SDS011;68429;50.958;3.592;2023-10-08T09:43:31;19.50;;;7.80;;
54167;SDS011;68429;50.958;3.592;2023-10-08T09:46:08;17.95;;;7.90;;
54167;SDS011;68429;50.958;3.592;2023-10-08T09:48:41;19.90;;;8.32;;
54167;SDS011;68429;50.958;3.592;2023-10-08T09:51:10;13.88;;;7.97;;
54167;SDS011;68429;50.958;3.592;2023-10-08T09:53:43;16.40;;;7.75;;
54167;SDS011;68429;50.958;3.592;2023-10-08T09:56:29;17.17;;;7.57;;
54167;SDS011;68429;50.958;3.592;2023-10-08T09:58:57;13.48;;;6.80;;
54167;SDS011;68429;50.958;3.592;2023-10-08T10:01:24;17.60;;;7.68;;
54167;SDS011;68429;50.958;3.592;2023-10-08T10:03:51;18.98;;;8.45;;
54167;SDS011;68429;50.958;3.592;2023-10-08T10:06:17;17.75;;;8.05;;
54167;SDS011;68429;50.958;3.592;2023-10-08T10:08:44;15.48;;;8.00;;
54167;SDS011;68429;50.958;3.592;2023-10-08T10:11:12;21.38;;;8.32;;
54167;SDS011;68429;50.958;3.592;2023-10-08T10:13:39;19.20;;;8.05;;
54167;SDS011;68429;50.958;3.592;2023-10-08T10:16:07;19.15;;;8.27;;
54167;SDS011;68429;50.958;3.592;2023-10-08T10:18:33;15.00;;;7.95;;
54167;SDS011;68429;50.958;3.592;2023-10-08T10:20:59;17.27;;;7.28;;
54167;SDS011;68429;50.958;3.592;2023-10-08T10:23:46;14.80;;;7.55;;
54167;SDS011;68429;50.958;3.592;2023-10-08T10:31:39;13.60;;;6.80;;
54167;SDS011;68429;50.958;3.592;2023-10-08T10:34:10;16.88;;;6.95;;
54167;SDS011;68429;50.958;3.592;2023-10-08T10:36:39;14.80;;;7.05;;
54167;SDS011;68429;50.958;3.592;2023-10-08T10:39:06;14.52;;;6.10;;
54167;SDS011;68429;50.958;3.592;2023-10-08T10:41:48;16.50;;;6.85;;
54167;SDS011;68429;50.958;3.592;2023-10-08T10:44:17;15.48;;;6.45;;
54167;SDS011;68429;50.958;3.592;2023-10-08T10:46:45;16.30;;;6.50;;
54167;SDS011;68429;50.958;3.592;2023-10-08T10:49:37;13.30;;;6.15;;
54167;SDS011;68429;50.958;3.592;2023-10-08T10:52:27;15.50;;;6.32;;
54167;SDS011;68429;50.958;3.592;2023-10-08T10:55:03;11.70;;;6.35;;
54167;SDS011;68429;50.958;3.592;2023-10-08T10:57:39;12.25;;;6.53;;
54167;SDS011;68429;50.958;3.592;2023-10-08T11:00:07;15.18;;;7.03;;
54167;SDS011;68429;50.958;3.592;2023-10-08T11:02:51;13.93;;;6.20;;
54167;SDS011;68429;50.958;3.592;2023-10-08T11:05:21;12.02;;;6.35;;
54167;SDS011;68429;50.958;3.592;2023-10-08T11:07:54;15.52;;;6.50;;
54167;SDS011;68429;50.958;3.592;2023-10-08T11:10:34;10.77;;;5.60;;
54167;SDS011;68429;50.958;3.592;2023-10-08T11:13:03;12.18;;;6.32;;
54167;SDS011;68429;50.958;3.592;2023-10-08T11:15:39;13.77;;;6.82;;
54167;SDS011;68429;50.958;3.592;2023-10-08T11:18:12;19.38;;;7.25;;
54167;SDS011;68429;50.958;3.592;2023-10-08T11:20:40;13.00;;;6.10;;
54167;SDS011;68429;50.958;3.592;2023-10-08T11:23:09;12.68;;;5.93;;
54167;SDS011;68429;50.958;3.592;2023-10-08T11:25:57;14.32;;;5.85;;
54167;SDS011;68429;50.958;3.592;2023-10-08T11:28:30;14.20;;;5.82;;
54167;SDS011;68429;50.958;3.592;2023-10-08T11:31:03;11.38;;;6.05;;
54167;SDS011;68429;50.958;3.592;2023-10-08T11:33:43;12.73;;;6.38;;
54167;SDS011;68429;50.958;3.592;2023-10-08T11:36:21;11.90;;;6.80;;
54167;SDS011;68429;50.958;3.592;2023-10-08T11:38:55;15.55;;;6.38;;
54167;SDS011;68429;50.958;3.592;2023-10-08T11:41:26;14.45;;;6.43;;
54167;SDS011;68429;50.958;3.592;2023-10-08T11:43:55;12.13;;;6.75;;
54167;SDS011;68429;50.958;3.592;2023-10-08T11:46:25;15.10;;;6.57;;
54167;SDS011;68429;50.958;3.592;2023-10-08T11:49:12;16.37;;;6.70;;
54167;SDS011;68429;50.958;3.592;2023-10-08T11:51:43;16.38;;;7.10;;
54167;SDS011;68429;50.958;3.592;2023-10-08T11:54:10;13.80;;;6.57;;
54167;SDS011;68429;50.958;3.592;2023-10-08T11:56:37;12.63;;;6.70;;
54167;SDS011;68429;50.958;3.592;2023-10-08T11:59:04;12.13;;;6.03;;
54167;SDS011;68429;50.958;3.592;2023-10-08T12:01:37;15.25;;;6.03;;
54167;SDS011;68429;50.958;3.592;2023-10-08T12:04:07;12.88;;;6.40;;
54167;SDS011;68429;50.958;3.592;2023-10-08T12:06:38;13.82;;;6.10;;
54167;SDS011;68429;50.958;3.592;2023-10-08T12:09:08;15.23;;;6.68;;
54167;SDS011;68429;50.958;3.592;2023-10-08T12:11:37;11.32;;;5.75;;
54167;SDS011;68429;50.958;3.592;2023-10-08T12:14:04;11.63;;;5.20;;
54167;SDS011;68429;50.958;3.592;2023-10-08T12:16:30;15.35;;;6.82;;
54167;SDS011;68429;50.958;3.592;2023-10-08T12:19:00;18.50;;;6.32;;
54167;SDS011;68429;50.958;3.592;2023-10-08T12:21:27;12.82;;;5.85;;
54167;SDS011;68429;50.958;3.592;2023-10-08T12:23:59;9.52;;;5.82;;
54167;SDS011;68429;50.958;3.592;2023-10-08T12:26:30;12.60;;;6.22;;
54167;SDS011;68429;50.958;3.592;2023-10-08T12:28:56;17.88;;;5.90;;
54167;SDS011;68429;50.958;3.592;2023-10-08T12:31:22;12.23;;;6.50;;
54167;SDS011;68429;50.958;3.592;2023-10-08T12:33:52;11.68;;;5.45;;
54167;SDS011;68429;50.958;3.592;2023-10-08T12:36:22;15.70;;;6.00;;
54167;SDS011;68429;50.958;3.592;2023-10-08T12:38:48;11.45;;;6.18;;
54167;SDS011;68429;50.958;3.592;2023-10-08T12:41:14;16.15;;;6.70;;
54167;SDS011;68429;50.958;3.592;2023-10-08T12:43:45;11.70;;;6.05;;
54167;SDS011;68429;50.958;3.592;2023-10-08T12:46:11;15.55;;;6.32;;
54167;SDS011;68429;50.958;3.592;2023-10-08T12:48:46;11.73;;;5.30;;
54167;SDS011;68429;50.958;3.592;2023-10-08T12:51:17;16.08;;;5.82;;
54167;SDS011;68429;50.958;3.592;2023-10-08T12:53:43;17.27;;;6.22;;
54167;SDS011;68429;50.958;3.592;2023-10-08T12:56:28;12.85;;;6.28;;
54167;SDS011;68429;50.958;3.592;2023-10-08T12:58:59;11.95;;;6.80;;
54167;SDS011;68429;50.958;3.592;2023-10-08T13:01:29;15.18;;;6.55;;
54167;SDS011;68429;50.958;3.592;2023-10-08T13:03:55;11.05;;;6.40;;
54167;SDS011;68429;50.958;3.592;2023-10-08T13:06:32;15.20;;;6.53;;
54167;SDS011;68429;50.958;3.592;2023-10-08T13:09:04;11.65;;;6.28;;
54167;SDS011;68429;50.958;3.592;2023-10-08T13:11:37;14.35;;;6.57;;
54167;SDS011;68429;50.958;3.592;2023-10-08T13:14:04;10.10;;;5.50;;
54167;SDS011;68429;50.958;3.592;2023-10-08T13:16:30;12.05;;;6.50;;
54167;SDS011;68429;50.958;3.592;2023-10-08T13:18:56;11.48;;;5.70;;
54167;SDS011;68429;50.958;3.592;2023-10-08T13:21:23;10.90;;;6.20;;
54167;SDS011;68429;50.958;3.592;2023-10-08T13:23:50;12.52;;;6.00;;
54167;SDS011;68429;50.958;3.592;2023-10-08T13:26:16;16.98;;;6.15;;
54167;SDS011;68429;50.958;3.592;2023-10-08T13:28:43;11.13;;;5.00;;
54167;SDS011;68429;50.958;3.592;2023-10-08T13:31:09;9.93;;;5.70;;
54167;SDS011;68429;50.958;3.592;2023-10-08T13:33:39;11.95;;;6.22;;
54167;SDS011;68429;50.958;3.592;2023-10-08T13:36:13;13.13;;;5.87;;
54167;SDS011;68429;50.958;3.592;2023-10-08T13:38:40;13.48;;;5.80;;
54167;SDS011;68429;50.958;3.592;2023-10-08T13:41:06;15.93;;;5.47;;
54167;SDS011;68429;50.958;3.592;2023-10-08T13:43:43;11.20;;;5.53;;
54167;SDS011;68429;50.958;3.592;2023-10-08T13:46:14;13.15;;;6.00;;
54167;SDS011;68429;50.958;3.592;2023-10-08T13:48:42;10.55;;;5.47;;
54167;SDS011;68429;50.958;3.592;2023-10-08T13:51:11;10.27;;;5.82;;
54167;SDS011;68429;50.958;3.592;2023-10-08T13:53:48;11.15;;;5.32;;
54167;SDS011;68429;50.958;3.592;2023-10-08T13:56:18;11.75;;;5.60;;
54167;SDS011;68429;50.958;3.592;2023-10-08T13:58:49;12.60;;;6.13;;
54167;SDS011;68429;50.958;3.592;2023-10-08T14:01:16;8.77;;;5.13;;
54167;SDS011;68429;50.958;3.592;2023-10-08T14:03:45;13.38;;;5.72;;
54167;SDS011;68429;50.958;3.592;2023-10-08T14:06:18;9.75;;;5.40;;
54167;SDS011;68429;50.958;3.592;2023-10-08T14:08:45;9.80;;;5.47;;
54167;SDS011;68429;50.958;3.592;2023-10-08T14:11:20;8.43;;;5.07;;
54167;SDS011;68429;50.958;3.592;2023-10-08T14:13:50;8.55;;;5.32;;
54167;SDS011;68429;50.958;3.592;2023-10-08T14:16:16;9.70;;;6.07;;
54167;SDS011;68429;50.958;3.592;2023-10-08T14:18:43;10.13;;;5.00;;
54167;SDS011;68429;50.958;3.592;2023-10-08T14:21:15;11.98;;;4.63;;
54167;SDS011;68429;50.958;3.592;2023-10-08T14:23:43;13.35;;;5.55;;
54167;SDS011;68429;50.958;3.592;2023-10-08T14:26:09;13.18;;;4.70;;
54167;SDS011;68429;50.958;3.592;2023-10-08T14:28:35;10.07;;;4.90;;
54167;SDS011;68429;50.958;3.592;2023-10-08T14:31:23;8.43;;;4.40;;
54167;SDS011;68429;50.958;3.592;2023-10-08T14:33:51;7.67;;;5.03;;
54167;SDS011;68429;50.958;3.592;2023-10-08T14:36:22;10.77;;;5.55;;
54167;SDS011;68429;50.958;3.592;2023-10-08T14:39:07;10.18;;;5.60;;
54167;SDS011;68429;50.958;3.592;2023-10-08T14:41:51;11.57;;;5.63;;
54167;SDS011;68429;50.958;3.592;2023-10-08T14:44:35;9.10;;;5.13;;
54167;SDS011;68429;50.958;3.592;2023-10-08T14:47:02;8.32;;;4.40;;
54167;SDS011;68429;50.958;3.592;2023-10-08T14:49:32;7.93;;;4.70;;
54167;SDS011;68429;50.958;3.592;2023-10-08T14:51:58;11.50;;;4.55;;
54167;SDS011;68429;50.958;3.592;2023-10-08T14:54:24;7.80;;;5.05;;
54167;SDS011;68429;50.958;3.592;2023-10-08T14:56:50;12.02;;;4.85;;
54167;SDS011;68429;50.958;3.592;2023-10-08T14:59:16;7.75;;;4.97;;
54167;SDS011;68429;50.958;3.592;2023-10-08T15:01:43;6.85;;;4.65;;
54167;SDS011;68429;50.958;3.592;2023-10-08T15:04:09;7.05;;;4.57;;
54167;SDS011;68429;50.958;3.592;2023-10-08T15:06:36;10.27;;;4.28;;
54167;SDS011;68429;50.958;3.592;2023-10-08T15:09:03;9.43;;;5.00;;
54167;SDS011;68429;50.958;3.592;2023-10-08T15:11:43;10.00;;;4.72;;
54167;SDS011;68429;50.958;3.592;2023-10-08T15:14:11;9.57;;;4.50;;
54167;SDS011;68429;50.958;3.592;2023-10-08T15:16:37;9.85;;;4.90;;